Hessdale, Pennsylvania
Current Conditions -  °F | °C
As of 1:53 PM on Monday 22 Dec 2014 (Local Time) from KLNS Reporting Station
Overcast Overcast  
Wind Chill: 37°   Ceiling: 3700
Heat Index: 37°   Visibility: 9mi
Dew Point: 29°   Wind: 0mph
Humidity: 73%   Direction: NA
Pressure: 30.2"   Gusts: NA
Location:  39.96°N, 76.1809°W
Report Text: KLNS 221853Z 00000KT 9SM OVC037 03/M02 A3020 RMK AO2 SLP231 T00281017
Loading
Personal Weather Stations






























Interactive Weather Map New forecast layout! Learn more

10-Day Weather Forecast

Advertisements
Track Severe Weather on mobile